Time;durP1;ratioP1;P1;durP2;ratioP2;P2;SDS_P1;SDS_P2;PMS_P1;PMS_P2;Temp;Humidity;BMP_temperature;BMP_pressure;BME280_temperature;BME280_humidity;BME280_pressure;Samples;Min_cycle;Max_cycle;Signal;HPM_P1;HPM_P2
2023/10/02 00:03:29;;;;;;;21.15;8.63;;;15.50;99.90;;;;;;4935383;29;20059;-88
2023/10/02 00:05:55;;;;;;;23.02;10.90;;;15.50;99.90;;;;;;4950112;28;20035;-88
2023/10/02 00:08:36;;;;;;;21.42;10.40;;;15.50;99.90;;;;;;4944906;28;20038;-88
2023/10/02 00:11:35;;;;;;;18.58;8.93;;;15.50;99.90;;;;;;4935319;29;20025;-88
2023/10/02 00:14:19;;;;;;;22.67;10.80;;;15.50;99.90;;;;;;4920124;29;20046;-89
2023/10/02 00:17:03;;;;;;;24.15;11.57;;;15.40;99.90;;;;;;4949936;28;20048;-88
2023/10/02 00:19:38;;;;;;;19.30;9.55;;;15.40;99.90;;;;;;4950097;28;20038;-89
2023/10/02 00:22:36;;;;;;;22.40;10.48;;;15.40;99.90;;;;;;4934918;29;20028;-89
2023/10/02 00:25:22;;;;;;;20.58;9.73;;;15.40;99.90;;;;;;4933796;29;20028;-88
2023/10/02 00:27:50;;;;;;;18.73;9.27;;;15.40;99.90;;;;;;4935132;29;20071;-88
2023/10/02 00:30:22;;;;;;;23.52;11.20;;;15.40;99.90;;;;;;4931018;29;20514;-88
2023/10/02 00:32:49;;;;;;;19.65;9.98;;;15.40;99.90;;;;;;4930331;29;20434;-88
2023/10/02 00:35:15;;;;;;;21.88;11.60;;;15.30;99.90;;;;;;4926924;29;20036;-87
2023/10/02 00:37:45;;;;;;;23.15;9.95;;;15.30;99.90;;;;;;4934145;29;20035;-88
2023/10/02 00:40:22;;;;;;;22.48;9.40;;;15.40;99.90;;;;;;4930886;29;20028;-88
2023/10/02 00:45:49;;;;;;;24.60;10.80;;;15.40;99.90;;;;;;4915991;29;20454;-87
2023/10/02 00:48:25;;;;;;;24.88;11.20;;;15.40;99.90;;;;;;4930779;29;20096;-87
2023/10/02 00:50:54;;;;;;;26.33;12.70;;;15.50;99.90;;;;;;4916409;29;20133;-88
2023/10/02 00:53:37;;;;;;;24.75;11.30;;;15.50;99.90;;;;;;4933994;29;20032;-88
2023/10/02 00:56:19;;;;;;;21.83;10.90;;;15.60;99.90;;;;;;4948511;28;20502;-88
2023/10/02 00:58:54;;;;;;;23.15;10.13;;;15.60;99.90;;;;;;4934652;29;20022;-88
2023/10/02 01:01:20;;;;;;;23.83;10.52;;;15.60;99.90;;;;;;4934765;29;20028;-88
2023/10/02 01:06:31;;;;;;;27.23;11.57;;;15.60;99.90;;;;;;4934966;29;20087;-89
2023/10/02 01:08:59;;;;;;;22.40;11.77;;;15.60;99.90;;;;;;4933506;28;20038;-88
2023/10/02 01:11:25;;;;;;;22.58;11.35;;;15.60;99.90;;;;;;4934692;29;20027;-88
2023/10/02 01:13:53;;;;;;;21.30;9.95;;;15.60;99.90;;;;;;4933652;29;20032;-88
2023/10/02 01:16:20;;;;;;;23.02;11.38;;;15.60;99.90;;;;;;4931649;29;20036;-87
2023/10/02 01:18:48;;;;;;;25.45;13.00;;;15.60;99.90;;;;;;4933711;29;20035;-88
2023/10/02 01:21:14;;;;;;;23.80;11.32;;;15.60;99.90;;;;;;4936356;29;20091;-88
2023/10/02 01:24:06;;;;;;;28.45;12.93;;;15.60;99.90;;;;;;4953229;28;20030;-88
2023/10/02 01:26:37;;;;;;;23.25;12.32;;;15.60;99.90;;;;;;4937396;28;20391;-88
2023/10/02 01:29:06;;;;;;;24.02;12.35;;;15.60;99.90;;;;;;4934431;28;20043;-88
2023/10/02 01:31:32;;;;;;;30.35;13.55;;;15.60;99.90;;;;;;4937237;29;20055;-88
2023/10/02 01:33:59;;;;;;;23.85;11.02;;;15.60;99.90;;;;;;4952866;29;20034;-88
2023/10/02 01:36:32;;;;;;;24.90;11.63;;;15.60;99.90;;;;;;4937270;28;20047;-88
2023/10/02 01:39:10;;;;;;;27.60;12.00;;;15.60;99.90;;;;;;4937010;28;20122;-88
2023/10/02 01:41:36;;;;;;;26.08;12.50;;;15.60;99.90;;;;;;4933461;28;20374;-88
2023/10/02 01:44:06;;;;;;;22.30;11.32;;;15.60;99.90;;;;;;4939226;29;20149;-87
2023/10/02 01:46:36;;;;;;;26.02;12.68;;;15.60;99.90;;;;;;4918077;29;20040;-87
2023/10/02 01:49:02;;;;;;;28.75;12.95;;;15.50;99.90;;;;;;4919117;29;20087;-88
2023/10/02 01:51:31;;;;;;;23.45;11.27;;;15.50;99.90;;;;;;4952904;28;20031;-88
2023/10/02 01:54:15;;;;;;;19.35;10.30;;;15.50;99.90;;;;;;4949321;28;20028;-88
2023/10/02 01:56:45;;;;;;;21.30;11.05;;;15.50;99.90;;;;;;4946888;29;20035;-88
2023/10/02 01:59:14;;;;;;;21.40;9.32;;;15.50;99.90;;;;;;4936654;29;20023;-88
2023/10/02 02:01:52;;;;;;;22.65;10.63;;;15.50;99.90;;;;;;4937790;29;20023;-87
2023/10/02 02:04:21;;;;;;;21.52;9.75;;;15.50;99.90;;;;;;4936517;28;20028;-88
2023/10/02 02:06:57;;;;;;;23.60;10.90;;;15.50;99.90;;;;;;4935992;29;20484;-87
2023/10/02 02:09:43;;;;;;;25.65;11.60;;;15.50;99.90;;;;;;4936612;29;20477;-88
2023/10/02 02:12:10;;;;;;;23.98;10.68;;;15.60;99.90;;;;;;4949117;28;20039;-87
2023/10/02 02:14:41;;;;;;;21.58;10.82;;;15.60;99.90;;;;;;4933249;29;20111;-87
2023/10/02 02:17:10;;;;;;;22.63;10.88;;;15.60;99.90;;;;;;4932698;29;20083;-88
2023/10/02 02:19:49;;;;;;;21.48;10.95;;;15.60;99.90;;;;;;4939723;29;20031;-88
2023/10/02 02:22:25;;;;;;;21.27;10.52;;;15.60;99.90;;;;;;4933153;29;20365;-88
2023/10/02 02:24:51;;;;;;;27.27;12.98;;;15.60;99.90;;;;;;4932788;29;20059;-88
2023/10/02 02:27:19;;;;;;;24.60;12.43;;;15.50;99.90;;;;;;4946040;28;20175;-87
2023/10/02 02:29:46;;;;;;;27.05;12.23;;;15.50;99.90;;;;;;4936479;29;20031;-88
2023/10/02 02:32:12;;;;;;;24.48;11.57;;;15.50;99.90;;;;;;4952055;29;20031;-88
2023/10/02 02:34:38;;;;;;;22.70;11.32;;;15.50;99.90;;;;;;4952004;28;20024;-88
2023/10/02 02:37:06;;;;;;;22.73;10.43;;;15.50;99.90;;;;;;4951623;28;20036;-88
2023/10/02 02:39:32;;;;;;;23.70;11.90;;;15.40;99.90;;;;;;4951993;28;20035;-88
2023/10/02 02:44:46;;;;;;;24.13;10.75;;;15.40;99.90;;;;;;4936912;29;20032;-88
2023/10/02 02:47:13;;;;;;;21.85;10.15;;;15.40;99.90;;;;;;4935689;29;20492;-88
2023/10/02 02:49:50;;;;;;;23.38;11.68;;;15.40;99.90;;;;;;4951907;29;20035;-88
2023/10/02 02:52:21;;;;;;;22.25;11.05;;;15.40;99.90;;;;;;4936655;29;20476;-87
2023/10/02 02:54:48;;;;;;;24.77;11.07;;;15.40;99.90;;;;;;4936361;29;20082;-88
2023/10/02 02:57:25;;;;;;;20.15;10.07;;;15.40;99.90;;;;;;4932394;29;20402;-87
2023/10/02 03:02:47;;;;;;;20.58;9.90;;;15.40;99.90;;;;;;4917813;29;20039;-88
2023/10/02 03:05:20;;;;;;;26.17;11.55;;;15.30;99.90;;;;;;4947775;28;20035;-87
2023/10/02 03:07:48;;;;;;;19.65;9.43;;;15.30;99.90;;;;;;4936254;29;20048;-87
2023/10/02 03:10:16;;;;;;;21.20;9.88;;;15.30;99.90;;;;;;4936549;29;20016;-87
2023/10/02 03:12:47;;;;;;;21.77;10.35;;;15.30;99.90;;;;;;4935413;29;20032;-87
2023/10/02 03:18:30;;;;;;;21.70;9.90;;;15.30;99.90;;;;;;4936391;29;20159;-88
2023/10/02 03:21:00;;;;;;;19.88;9.27;;;15.30;99.90;;;;;;4935922;29;20035;-88
2023/10/02 03:23:30;;;;;;;23.15;10.50;;;15.30;99.90;;;;;;4935338;29;20038;-88
2023/10/02 03:25:56;;;;;;;23.80;10.27;;;15.30;99.90;;;;;;4935853;29;20494;-87
2023/10/02 03:28:28;;;;;;;24.15;10.55;;;15.30;99.90;;;;;;4935362;28;20492;-87
2023/10/02 03:30:58;;;;;;;22.20;10.32;;;15.30;99.90;;;;;;4931313;28;20062;-87
2023/10/02 03:33:25;;;;;;;23.80;9.82;;;15.30;99.90;;;;;;4931911;29;20043;-88
2023/10/02 03:35:58;;;;;;;25.20;11.23;;;15.30;99.90;;;;;;4916707;29;20021;-87
2023/10/02 03:38:33;;;;;;;22.58;10.25;;;15.30;99.90;;;;;;4931889;29;20080;-88
2023/10/02 03:41:01;;;;;;;20.35;9.50;;;15.30;99.90;;;;;;4930921;29;20127;-88
2023/10/02 03:43:43;;;;;;;22.10;10.30;;;15.20;99.90;;;;;;4933306;29;20024;-88
2023/10/02 03:46:35;;;;;;;23.20;10.93;;;15.30;99.90;;;;;;4931711;28;20034;-88
2023/10/02 03:49:03;;;;;;;22.58;9.77;;;15.20;99.90;;;;;;4931347;29;20064;-88
2023/10/02 03:51:36;;;;;;;22.50;10.32;;;15.20;99.90;;;;;;4966085;28;20027;-88
2023/10/02 03:54:17;;;;;;;;;;;15.20;99.90;;;;;;4949600;29;20086;-88
2023/10/02 03:56:48;;;;;;;21.05;8.70;;;15.20;99.90;;;;;;4931212;29;19911;-88
2023/10/02 03:59:26;;;;;;;23.35;10.18;;;15.10;99.90;;;;;;4931493;29;20485;-87
2023/10/02 04:01:53;;;;;;;22.15;9.45;;;15.10;99.90;;;;;;4916138;29;20441;-89
2023/10/02 04:04:19;;;;;;;29.85;10.10;;;15.10;99.90;;;;;;4936138;29;20398;-88
2023/10/02 04:06:47;;;;;;;23.48;10.27;;;15.10;99.90;;;;;;4923235;29;20519;-88
2023/10/02 04:11:43;;;;;;;20.35;9.18;;;15.10;99.90;;;;;;4916127;29;20464;-88
2023/10/02 04:14:18;;;;;;;22.27;10.48;;;15.00;99.90;;;;;;4921612;29;20123;-89
2023/10/02 04:17:09;;;;;;;21.75;9.65;;;15.00;99.90;;;;;;4949875;29;20052;-88
2023/10/02 04:19:35;;;;;;;22.48;10.25;;;15.00;99.90;;;;;;4935359;29;20024;-89
2023/10/02 04:22:06;;;;;;;22.20;10.25;;;15.00;99.90;;;;;;4949851;29;20082;-87
2023/10/02 04:24:50;;;;;;;22.38;10.63;;;15.00;99.90;;;;;;4935528;29;20055;-88
2023/10/02 04:27:18;;;;;;;20.05;9.65;;;15.00;99.90;;;;;;4946731;28;20048;-89
2023/10/02 04:30:09;;;;;;;21.58;9.98;;;15.00;99.90;;;;;;4935084;29;20020;-89
2023/10/02 04:32:32;;;;;;;21.92;9.70;;;14.90;99.90;;;;;;4935107;28;20091;-88
2023/10/02 04:34:58;;;;;;;20.75;9.05;;;14.90;99.90;;;;;;4934773;29;20020;-89
2023/10/02 04:37:23;;;;;;;22.52;9.80;;;14.90;99.90;;;;;;4947004;29;20071;-89
2023/10/02 04:40:00;;;;;;;24.55;11.07;;;14.90;99.90;;;;;;4930758;29;20021;-88
2023/10/02 04:42:29;;;;;;;23.40;10.50;;;14.90;99.90;;;;;;4936547;29;20115;-88
2023/10/02 04:44:58;;;;;;;25.50;10.02;;;14.90;99.90;;;;;;4930653;29;20053;-88
2023/10/02 04:47:26;;;;;;;27.42;10.27;;;14.90;99.90;;;;;;4943111;28;20032;-88
2023/10/02 04:52:55;;;;;;;23.35;10.10;;;14.90;99.90;;;;;;4938113;29;20098;-88
2023/10/02 04:55:24;;;;;;;20.05;10.05;;;14.90;99.90;;;;;;4939693;28;20035;-88
2023/10/02 04:58:03;;;;;;;27.02;11.00;;;14.90;99.90;;;;;;4920118;29;20027;-88
2023/10/02 05:00:34;;;;;;;25.80;10.88;;;14.90;99.90;;;;;;4922379;29;20145;-88
2023/10/02 05:03:17;;;;;;;23.10;10.80;;;14.90;99.90;;;;;;4953717;29;20024;-88
2023/10/02 05:05:51;;;;;;;21.90;10.48;;;14.90;99.90;;;;;;4953495;29;20028;-87
2023/10/02 05:08:21;;;;;;;23.90;9.90;;;14.90;99.90;;;;;;4953820;29;20039;-88
2023/10/02 05:10:49;;;;;;;24.17;10.23;;;14.90;99.90;;;;;;4953184;28;20027;-88
2023/10/02 05:13:45;;;;;;;20.40;9.50;;;14.90;99.90;;;;;;4953699;29;20102;-88
2023/10/02 05:16:11;;;;;;;23.98;8.95;;;14.90;99.90;;;;;;4938079;29;20048;-88
2023/10/02 05:18:39;;;;;;;22.83;10.40;;;14.90;99.90;;;;;;4938651;29;20067;-88
2023/10/02 05:21:05;;;;;;;23.83;10.50;;;14.90;99.90;;;;;;4953038;28;20028;-89
2023/10/02 05:23:30;;;;;;;23.95;10.40;;;14.90;99.90;;;;;;4937548;28;20034;-89
2023/10/02 05:26:02;;;;;;;22.80;10.27;;;14.90;99.90;;;;;;4937173;28;20028;-88
2023/10/02 05:28:42;;;;;;;23.20;9.93;;;14.90;99.90;;;;;;4937299;28;20035;-88
2023/10/02 05:31:08;;;;;;;23.98;9.50;;;14.90;99.90;;;;;;4937137;29;20032;-88
2023/10/02 05:33:37;;;;;;;24.30;10.40;;;14.90;99.90;;;;;;4933912;29;20030;-88
2023/10/02 05:36:09;;;;;;;22.17;9.45;;;14.90;99.90;;;;;;4918890;29;20036;-88
2023/10/02 05:38:35;;;;;;;24.63;10.40;;;15.00;99.90;;;;;;4934182;29;20197;-89
2023/10/02 05:41:03;;;;;;;22.27;9.95;;;14.90;99.90;;;;;;4941199;29;20035;-88
2023/10/02 05:43:39;;;;;;;23.30;9.48;;;14.90;99.90;;;;;;4935350;28;20031;-88
2023/10/02 05:46:06;;;;;;;25.58;10.35;;;14.90;99.90;;;;;;4933335;29;20020;-88
2023/10/02 05:48:37;;;;;;;22.55;10.15;;;14.90;99.90;;;;;;4938629;29;20087;-88
2023/10/02 05:51:09;;;;;;;22.50;11.02;;;14.90;99.90;;;;;;4936462;29;20082;-88
2023/10/02 05:53:37;;;;;;;25.40;10.65;;;14.90;99.90;;;;;;4936925;29;20085;-88
2023/10/02 05:56:12;;;;;;;25.15;9.98;;;14.90;99.90;;;;;;4936578;28;20043;-89
2023/10/02 05:58:42;;;;;;;25.52;10.68;;;15.00;99.90;;;;;;4950490;29;20040;-88
2023/10/02 06:01:23;;;;;;;27.83;10.13;;;15.00;99.90;;;;;;4945917;28;20091;-88
2023/10/02 06:03:58;;;;;;;22.80;11.18;;;15.10;99.90;;;;;;4933341;29;20024;-88
2023/10/02 06:06:25;;;;;;;25.25;10.60;;;15.10;99.90;;;;;;4918904;29;20024;-88
2023/10/02 06:08:52;;;;;;;22.40;9.77;;;15.00;99.90;;;;;;4918611;29;20032;-88
2023/10/02 06:11:34;;;;;;;23.08;9.57;;;15.10;99.90;;;;;;4944281;29;20020;-89
2023/10/02 06:14:11;;;;;;;24.25;10.23;;;15.10;99.90;;;;;;4949213;28;20034;-88
2023/10/02 06:16:41;;;;;;;27.92;10.95;;;15.10;99.90;;;;;;4933489;29;20572;-89
2023/10/02 06:19:13;;;;;;;26.45;10.50;;;15.20;99.90;;;;;;4942277;29;20087;-89
2023/10/02 06:24:29;;;;;;;22.27;10.45;;;15.30;99.90;;;;;;4918917;29;20059;-89
2023/10/02 06:27:04;;;;;;;24.55;10.68;;;15.30;99.90;;;;;;4944207;28;20044;-90
2023/10/02 06:29:35;;;;;;;22.55;10.25;;;15.40;99.90;;;;;;4933498;29;20123;-90
2023/10/02 06:32:22;;;;;;;25.50;10.60;;;15.40;99.90;;;;;;4951708;29;20036;-89
2023/10/02 06:34:50;;;;;;;25.55;9.65;;;15.50;99.90;;;;;;4935822;29;20015;-89
2023/10/02 06:37:18;;;;;;;25.23;10.77;;;15.60;99.90;;;;;;4936184;29;20031;-89
2023/10/02 06:40:03;;;;;;;23.05;9.60;;;15.60;99.90;;;;;;4934684;29;20023;-89
2023/10/02 06:42:30;;;;;;;24.73;10.30;;;15.70;99.90;;;;;;4932770;29;20131;-89
2023/10/02 06:45:01;;;;;;;24.25;10.27;;;15.70;99.90;;;;;;4932107;29;20024;-89
2023/10/02 06:47:32;;;;;;;22.80;10.98;;;15.80;99.90;;;;;;4962170;28;20054;-89
2023/10/02 06:50:21;;;;;;;27.00;11.68;;;15.90;99.90;;;;;;4935828;28;20034;-90
2023/10/02 06:52:49;;;;;;;24.63;10.98;;;15.90;99.90;;;;;;4936435;29;20028;-88
2023/10/02 06:55:17;;;;;;;24.35;10.90;;;16.00;99.90;;;;;;4935479;29;20087;-90
2023/10/02 06:57:49;;;;;;;20.25;10.18;;;16.10;99.90;;;;;;4935632;29;20034;-90
2023/10/02 07:00:19;;;;;;;27.13;11.48;;;16.10;99.90;;;;;;4948770;28;20034;-89
2023/10/02 07:02:56;;;;;;;20.70;10.52;;;16.20;99.90;;;;;;4932479;29;20507;-90
2023/10/02 07:05:27;;;;;;;25.65;10.38;;;16.30;99.90;;;;;;4932477;29;20103;-89
2023/10/02 07:07:59;;;;;;;23.88;10.95;;;16.30;99.90;;;;;;4950282;29;20036;-90
2023/10/02 07:10:24;;;;;;;26.40;11.13;;;16.40;99.90;;;;;;4935720;29;20034;-90
2023/10/02 07:12:50;;;;;;;26.10;12.38;;;16.60;99.90;;;;;;4947912;28;20028;-89
2023/10/02 07:15:22;;;;;;;22.33;11.05;;;16.70;99.90;;;;;;4929822;29;20107;-89
2023/10/02 07:17:48;;;;;;;23.40;10.00;;;16.80;99.90;;;;;;4934862;28;20065;-89
2023/10/02 07:20:20;;;;;;;23.33;11.30;;;16.80;99.90;;;;;;4935303;28;20611;-89
2023/10/02 07:22:46;;;;;;;;;;;17.00;99.90;;;;;;4935558;28;20031;-89
2023/10/02 07:25:11;;;;;;;21.38;10.20;;;17.00;99.90;;;;;;4951278;28;19911;-89
2023/10/02 07:27:37;;;;;;;25.00;11.77;;;17.10;99.90;;;;;;4935200;28;20104;-89
2023/10/02 07:30:04;;;;;;;24.10;10.75;;;17.20;99.90;;;;;;4934985;28;20038;-88
2023/10/02 07:32:32;;;;;;;24.58;12.38;;;17.30;99.90;;;;;;4935165;28;20436;-89
2023/10/02 07:35:17;;;;;;;23.10;11.63;;;17.40;99.90;;;;;;4934789;28;20028;-89
2023/10/02 07:37:42;;;;;;;22.63;10.82;;;17.50;99.90;;;;;;4934719;28;20028;-89
2023/10/02 07:40:09;;;;;;;27.63;13.25;;;17.70;99.90;;;;;;4931638;28;20060;-89
2023/10/02 07:42:34;;;;;;;28.02;12.38;;;17.80;99.90;;;;;;4944503;29;20028;-89
2023/10/02 07:45:21;;;;;;;25.10;12.50;;;18.00;99.90;;;;;;4918736;29;20034;-89
2023/10/02 07:48:08;;;;;;;27.95;12.98;;;18.20;99.90;;;;;;4950375;29;20563;-88
2023/10/02 07:50:35;;;;;;;25.95;12.82;;;18.20;99.90;;;;;;4930992;29;20124;-89
2023/10/02 07:53:04;;;;;;;23.50;12.40;;;18.30;99.90;;;;;;4916380;29;20031;-89
2023/10/02 07:55:32;;;;;;;22.73;11.93;;;18.40;99.90;;;;;;4916692;29;20027;-88
2023/10/02 07:58:00;;;;;;;27.63;12.57;;;18.50;99.90;;;;;;4915362;29;20028;-89
2023/10/02 08:00:39;;;;;;;24.88;12.00;;;18.50;99.90;;;;;;4929321;29;20034;-89
2023/10/02 08:03:29;;;;;;;24.90;11.85;;;18.50;99.90;;;;;;4950243;28;20433;-89
2023/10/02 08:05:51;;;;;;;25.45;12.35;;;18.60;99.90;;;;;;4935151;28;20263;-89
2023/10/02 08:08:18;;;;;;;23.88;12.45;;;18.60;99.90;;;;;;4934274;29;20040;-88
2023/10/02 08:10:50;;;;;;;29.85;13.02;;;18.70;99.90;;;;;;4930768;29;20031;-89
2023/10/02 08:16:17;;;;;;;25.90;12.98;;;18.60;99.90;;;;;;4911949;29;20039;-88
2023/10/02 08:18:57;;;;;;;26.90;13.55;;;18.60;99.90;;;;;;4943760;29;20028;-88
2023/10/02 08:21:46;;;;;;;27.70;12.50;;;18.60;99.90;;;;;;4915318;29;20032;-90
2023/10/02 08:24:13;;;;;;;27.33;12.27;;;18.60;99.90;;;;;;4920207;29;20120;-89
2023/10/02 08:26:40;;;;;;;29.55;13.90;;;18.70;99.90;;;;;;4930400;29;20032;-89
2023/10/02 08:29:10;;;;;;;27.52;13.27;;;18.70;99.90;;;;;;4933746;28;20024;-88
2023/10/02 08:31:43;;;;;;;24.73;11.68;;;18.70;99.90;;;;;;4935432;29;20103;-88
2023/10/02 08:34:19;;;;;;;27.02;12.60;;;18.80;99.90;;;;;;4950211;29;20031;-88
2023/10/02 08:36:49;;;;;;;27.70;13.27;;;18.80;99.90;;;;;;4949452;29;20032;-89
2023/10/02 08:39:21;;;;;;;29.25;13.50;;;19.00;99.90;;;;;;4949892;28;20046;-88
2023/10/02 08:41:50;;;;;;;32.75;14.27;;;19.10;99.90;;;;;;4949461;28;20034;-89
2023/10/02 08:44:16;;;;;;;26.85;12.48;;;19.30;99.90;;;;;;4949932;29;20123;-88
2023/10/02 08:46:45;;;;;;;25.10;12.68;;;19.50;99.90;;;;;;4947752;29;20135;-89
2023/10/02 08:49:12;;;;;;;25.35;12.82;;;19.60;99.90;;;;;;4934009;29;20042;-88
2023/10/02 08:51:38;;;;;;;31.65;13.95;;;19.80;99.90;;;;;;4933907;28;20084;-88
2023/10/02 08:54:05;;;;;;;29.15;12.55;;;19.90;99.90;;;;;;4933538;28;20126;-88
2023/10/02 08:56:43;;;;;;;30.55;14.32;;;20.00;99.90;;;;;;4934702;29;20023;-89
2023/10/02 08:59:26;;;;;;;29.08;13.88;;;20.20;99.90;;;;;;4933682;28;20102;-89
2023/10/02 09:02:06;;;;;;;25.63;12.57;;;20.30;99.90;;;;;;4946456;28;20036;-88
2023/10/02 09:04:33;;;;;;;29.40;13.18;;;20.40;99.90;;;;;;4915914;29;20457;-89
2023/10/02 09:07:06;;;;;;;27.05;13.20;;;20.50;99.90;;;;;;4915057;29;20119;-88
2023/10/02 09:09:45;;;;;;;26.25;13.95;;;20.60;99.90;;;;;;4916712;29;20024;-88
2023/10/02 09:12:15;;;;;;;26.77;13.30;;;20.80;99.90;;;;;;4915300;29;20028;-88
2023/10/02 09:14:41;;;;;;;35.15;14.10;;;20.90;99.90;;;;;;4946984;29;20027;-88
2023/10/02 09:17:19;;;;;;;25.50;12.45;;;21.10;99.90;;;;;;4930439;29;20111;-88
2023/10/02 09:19:53;;;;;;;28.60;13.13;;;21.20;99.90;;;;;;4930169;29;20032;-89
2023/10/02 09:22:23;;;;;;;28.45;14.52;;;21.20;99.90;;;;;;4930383;29;20028;-88
2023/10/02 09:25:23;;;;;;;29.65;14.75;;;21.30;99.90;;;;;;4931504;29;20408;-88
2023/10/02 09:28:13;;;;;;;29.27;14.80;;;21.40;99.90;;;;;;4932968;28;20044;-89
2023/10/02 09:30:41;;;;;;;25.95;12.50;;;21.40;99.90;;;;;;4933540;28;20031;-88
2023/10/02 09:33:22;;;;;;;29.70;14.27;;;21.40;99.90;;;;;;4933070;29;20063;-88
2023/10/02 09:35:51;;;;;;;29.77;14.88;;;21.50;99.90;;;;;;4934271;29;20019;-89
2023/10/02 09:38:17;;;;;;;28.67;13.38;;;21.60;99.90;;;;;;4937059;29;20031;-89
2023/10/02 09:41:02;;;;;;;26.48;13.63;;;21.70;99.90;;;;;;4943041;28;20562;-87
2023/10/02 09:43:35;;;;;;;30.33;14.45;;;21.80;99.90;;;;;;4935218;29;20062;-84
2023/10/02 09:46:06;;;;;;;27.67;14.38;;;21.90;99.90;;;;;;4931052;29;20127;-85
2023/10/02 09:49:19;;;;;;;26.95;13.55;;;21.90;99.90;;;;;;4935660;28;20424;-85
2023/10/02 09:51:25;;;;;;;31.58;14.55;;;22.00;99.90;;;;;;4928526;29;20123;-85
2023/10/02 09:54:08;;;;;;;30.83;15.10;;;22.20;99.90;;;;;;4948446;28;20400;-85
2023/10/02 09:57:11;;;;;;;33.13;14.98;;;22.20;99.90;;;;;;4939584;28;20071;-85
2023/10/02 09:59:45;;;;;;;26.33;13.88;;;22.20;99.90;;;;;;4949513;28;20027;-84
2023/10/02 10:02:49;;;;;;;28.65;14.88;;;22.20;99.90;;;;;;4935789;29;20035;-84
2023/10/02 10:07:52;;;;;;;28.70;14.32;;;22.40;99.90;;;;;;4933546;29;20058;-84
2023/10/02 10:13:32;;;;;;;27.75;13.70;;;22.80;99.90;;;;;;4918860;29;20556;-84
2023/10/02 10:16:18;;;;;;;25.05;12.38;;;22.90;99.90;;;;;;4934509;29;20039;-84
2023/10/02 10:21:56;;;;;;;23.45;12.88;;;23.40;99.90;;;;;;4927062;29;20031;-84
2023/10/02 10:27:41;;;;;;;28.05;14.13;;;23.60;99.90;;;;;;4930342;29;20074;-83
2023/10/02 10:35:35;;;;;;;26.55;12.75;;;23.70;99.90;;;;;;4936571;29;20066;-82
2023/10/02 10:38:07;;;;;;;26.55;13.85;;;23.80;99.90;;;;;;4935213;28;20027;-83
2023/10/02 10:40:43;;;;;;;;;;;23.80;99.90;;;;;;4936949;29;20159;-82
2023/10/02 10:43:13;;;;;;;24.80;12.18;;;23.90;99.90;;;;;;4925898;29;19934;-83
2023/10/02 10:45:39;;;;;;;26.20;12.73;;;23.90;99.90;;;;;;4935064;29;20031;-83
2023/10/02 10:48:26;;;;;;;24.55;12.52;;;23.90;99.90;;;;;;4928288;29;20092;-83
2023/10/02 10:51:06;;;;;;;23.02;11.50;;;23.90;99.90;;;;;;4929402;29;20168;-83
2023/10/02 10:53:32;;;;;;;27.40;13.98;;;23.90;99.90;;;;;;4931803;29;20380;-83
2023/10/02 10:56:17;;;;;;;24.92;12.65;;;23.90;99.90;;;;;;4932601;29;20032;-83
2023/10/02 10:59:13;;;;;;;25.88;13.45;;;24.00;99.90;;;;;;4936191;29;20579;-82
2023/10/02 11:02:09;;;;;;;23.98;12.90;;;24.10;99.90;;;;;;4925578;29;20024;-83
2023/10/02 11:04:40;;;;;;;25.98;13.77;;;24.30;99.90;;;;;;4930418;29;20511;-83
2023/10/02 11:07:23;;;;;;;27.08;13.88;;;24.30;99.90;;;;;;4931608;29;20036;-83
2023/10/02 11:10:15;;;;;;;27.08;12.88;;;24.40;99.90;;;;;;4934700;29;20038;-83
2023/10/02 11:12:54;;;;;;;26.13;12.77;;;24.40;99.90;;;;;;4919323;29;20363;-83
2023/10/02 11:15:45;;;;;;;27.52;12.80;;;24.50;99.90;;;;;;4933245;29;20107;-83
2023/10/02 11:18:20;;;;;;;21.83;10.73;;;24.60;99.90;;;;;;4931139;29;20054;-83
2023/10/02 11:20:57;;;;;;;21.58;11.23;;;24.90;99.90;;;;;;4933799;29;20028;-82
2023/10/02 11:23:44;;;;;;;20.50;10.70;;;25.20;99.90;;;;;;4934465;29;20083;-84
2023/10/02 11:26:11;;;;;;;23.65;12.15;;;25.30;99.90;;;;;;4957481;28;20366;-83
2023/10/02 11:28:38;;;;;;;21.02;10.85;;;25.30;99.90;;;;;;4939293;28;20489;-83
2023/10/02 11:31:29;;;;;;;23.70;11.45;;;25.20;99.90;;;;;;4930716;29;20023;-82
2023/10/02 11:34:08;;;;;;;25.17;12.30;;;25.20;99.90;;;;;;4931577;29;20066;-83
2023/10/02 11:36:38;;;;;;;27.23;12.35;;;25.10;99.90;;;;;;4932325;29;20027;-84
2023/10/02 11:39:16;;;;;;;21.65;11.75;;;25.10;99.90;;;;;;4920916;29;20122;-85
2023/10/02 11:41:43;;;;;;;24.25;12.68;;;25.20;99.90;;;;;;4941978;29;20028;-84
2023/10/02 11:44:12;;;;;;;25.10;11.70;;;25.10;99.90;;;;;;4933595;29;20031;-83
2023/10/02 11:46:40;;;;;;;27.10;11.98;;;25.10;99.90;;;;;;4941745;29;20040;-83
2023/10/02 11:49:06;;;;;;;23.73;10.93;;;25.10;99.90;;;;;;4944925;29;20095;-83
2023/10/02 11:51:33;;;;;;;23.40;11.55;;;25.10;99.90;;;;;;4944523;29;20044;-82
2023/10/02 11:54:00;;;;;;;24.40;11.70;;;25.10;99.90;;;;;;4930711;29;20125;-82
2023/10/02 11:56:29;;;;;;;23.70;11.68;;;25.10;99.90;;;;;;4934172;29;20019;-83
2023/10/02 11:58:56;;;;;;;29.80;14.35;;;25.10;99.90;;;;;;4926497;29;20136;-83
2023/10/02 12:01:22;;;;;;;26.23;12.38;;;25.10;99.90;;;;;;4929544;29;20019;-84
2023/10/02 12:03:51;;;;;;;24.13;12.23;;;25.10;99.90;;;;;;4925446;29;20035;-82
2023/10/02 12:06:17;;;;;;;22.45;11.63;;;25.10;99.90;;;;;;4934405;29;20457;-81
2023/10/02 12:08:44;;;;;;;21.40;10.57;;;25.20;99.90;;;;;;4948905;29;20035;-82
2023/10/02 12:11:15;;;;;;;27.48;12.30;;;25.20;99.90;;;;;;4932804;28;20031;-82
2023/10/02 12:13:44;;;;;;;23.33;11.05;;;25.40;99.90;;;;;;4931041;29;20460;-82
2023/10/02 12:16:13;;;;;;;30.23;12.55;;;25.50;99.90;;;;;;4936288;29;20464;-82
2023/10/02 12:18:40;;;;;;;25.55;12.02;;;25.50;99.90;;;;;;4927962;29;20126;-82
2023/10/02 12:21:11;;;;;;;24.17;12.57;;;25.50;99.90;;;;;;4933729;29;20119;-82
2023/10/02 12:23:43;;;;;;;27.35;12.43;;;25.50;99.90;;;;;;4949659;28;20028;-80
2023/10/02 12:26:12;;;;;;;25.10;13.07;;;25.60;99.90;;;;;;4945924;28;20043;-82
2023/10/02 12:28:38;;;;;;;28.70;13.60;;;25.60;99.90;;;;;;4930135;29;20035;-82
2023/10/02 12:31:12;;;;;;;27.38;14.07;;;25.60;99.90;;;;;;4943719;28;20598;-82
2023/10/02 12:33:38;;;;;;;26.75;13.27;;;25.70;99.90;;;;;;4931378;29;20039;-82
2023/10/02 12:36:21;;;;;;;28.90;14.73;;;25.70;99.90;;;;;;4932753;29;20094;-82
2023/10/02 12:38:50;;;;;;;28.48;14.18;;;25.70;99.90;;;;;;4932729;29;20023;-82
2023/10/02 12:41:20;;;;;;;28.83;14.32;;;25.70;99.90;;;;;;4931740;29;20107;-85
2023/10/02 12:43:55;;;;;;;31.63;16.00;;;25.70;99.90;;;;;;4930307;29;20066;-83
2023/10/02 12:46:25;;;;;;;28.00;14.27;;;25.60;99.90;;;;;;4929668;29;20047;-84
2023/10/02 12:48:51;;;;;;;32.58;16.33;;;25.60;99.90;;;;;;4945826;28;20066;-83
2023/10/02 12:51:17;;;;;;;26.40;14.77;;;25.50;99.90;;;;;;4934168;29;20040;-85
2023/10/02 12:53:43;;;;;;;28.77;13.57;;;25.40;99.90;;;;;;4947434;28;20043;-93
2023/10/02 12:56:19;;;;;;;29.05;14.35;;;25.40;99.90;;;;;;4928622;29;20035;-89
2023/10/02 12:58:48;;;;;;;27.85;13.93;;;25.30;99.90;;;;;;4941032;29;20032;-89
2023/10/02 13:01:24;;;;;;;28.73;13.40;;;25.20;99.90;;;;;;4932634;29;20400;-90
2023/10/02 13:03:51;;;;;;;25.05;13.00;;;25.30;99.90;;;;;;4942083;29;20027;-90
2023/10/02 13:06:17;;;;;;;30.02;13.77;;;25.30;99.90;;;;;;4933618;29;20023;-89
2023/10/02 13:08:44;;;;;;;25.38;13.18;;;25.20;99.90;;;;;;4949975;29;20042;-87
2023/10/02 13:11:19;;;;;;;24.58;12.13;;;25.20;99.90;;;;;;4962060;28;20024;-89
2023/10/02 13:13:48;;;;;;;23.55;11.85;;;25.20;99.90;;;;;;4923703;28;20027;-89
2023/10/02 13:16:15;;;;;;;28.00;12.95;;;25.10;99.90;;;;;;4934079;29;20036;-88
2023/10/02 13:18:41;;;;;;;23.50;12.00;;;25.00;99.90;;;;;;4920517;29;20409;-89
2023/10/02 13:21:08;;;;;;;26.52;12.38;;;25.00;99.90;;;;;;4944248;29;20028;-88
2023/10/02 13:23:35;;;;;;;23.63;11.75;;;25.00;99.90;;;;;;4926552;29;20086;-89
2023/10/02 13:26:04;;;;;;;30.33;12.77;;;25.20;99.90;;;;;;4931353;29;20032;-89
2023/10/02 13:28:30;;;;;;;26.88;12.68;;;25.20;99.90;;;;;;4936669;29;20051;-89
2023/10/02 13:30:56;;;;;;;26.70;13.48;;;25.20;99.90;;;;;;4937012;29;20020;-90
2023/10/02 13:33:21;;;;;;;25.38;12.98;;;25.30;99.90;;;;;;4937227;28;20114;-90
2023/10/02 13:35:57;;;;;;;24.00;12.40;;;25.20;99.90;;;;;;4952836;29;20433;-90
2023/10/02 13:38:24;;;;;;;24.73;12.90;;;25.30;99.90;;;;;;4937827;29;20519;-89
2023/10/02 13:40:49;;;;;;;22.33;10.82;;;25.40;99.90;;;;;;4936809;29;20420;-88